sensor_id;sensor_type;location;lat;lon;timestamp;P1;durP1;ratioP1;P2;durP2;ratioP2
16272;SDS011;8244;50.044;9.006;2023-08-31T00:01:12;4.20;;;3.00;;
16272;SDS011;8244;50.044;9.006;2023-08-31T00:06:14;4.32;;;2.63;;
16272;SDS011;8244;50.044;9.006;2023-08-31T00:11:16;3.78;;;2.80;;
16272;SDS011;8244;50.044;9.006;2023-08-31T00:16:20;5.57;;;2.90;;
16272;SDS011;8244;50.044;9.006;2023-08-31T00:21:25;6.20;;;3.20;;
16272;SDS011;8244;50.044;9.006;2023-08-31T00:26:27;6.28;;;3.40;;
16272;SDS011;8244;50.044;9.006;2023-08-31T00:31:32;7.22;;;3.45;;
16272;SDS011;8244;50.044;9.006;2023-08-31T00:36:34;5.90;;;3.08;;
16272;SDS011;8244;50.044;9.006;2023-08-31T00:41:35;3.97;;;2.97;;
16272;SDS011;8244;50.044;9.006;2023-08-31T00:46:40;3.70;;;2.92;;
16272;SDS011;8244;50.044;9.006;2023-08-31T00:51:42;6.65;;;3.60;;
16272;SDS011;8244;50.044;9.006;2023-08-31T00:56:51;6.20;;;3.70;;
16272;SDS011;8244;50.044;9.006;2023-08-31T01:01:57;6.38;;;3.80;;
16272;SDS011;8244;50.044;9.006;2023-08-31T01:07:08;7.18;;;4.32;;
16272;SDS011;8244;50.044;9.006;2023-08-31T01:12:18;7.65;;;3.45;;
16272;SDS011;8244;50.044;9.006;2023-08-31T01:17:32;7.43;;;3.75;;
16272;SDS011;8244;50.044;9.006;2023-08-31T01:22:38;10.40;;;4.93;;
16272;SDS011;8244;50.044;9.006;2023-08-31T01:27:42;6.03;;;4.15;;
16272;SDS011;8244;50.044;9.006;2023-08-31T01:32:44;9.93;;;3.95;;
16272;SDS011;8244;50.044;9.006;2023-08-31T01:37:47;8.68;;;4.03;;
16272;SDS011;8244;50.044;9.006;2023-08-31T01:42:53;5.75;;;3.67;;
16272;SDS011;8244;50.044;9.006;2023-08-31T01:47:56;8.77;;;3.97;;
16272;SDS011;8244;50.044;9.006;2023-08-31T01:52:58;6.03;;;3.50;;
16272;SDS011;8244;50.044;9.006;2023-08-31T01:58:01;8.95;;;4.05;;
16272;SDS011;8244;50.044;9.006;2023-08-31T02:03:03;10.30;;;4.03;;
16272;SDS011;8244;50.044;9.006;2023-08-31T02:08:06;7.00;;;4.35;;
16272;SDS011;8244;50.044;9.006;2023-08-31T02:13:09;6.45;;;4.00;;
16272;SDS011;8244;50.044;9.006;2023-08-31T02:18:11;7.13;;;3.92;;
16272;SDS011;8244;50.044;9.006;2023-08-31T02:23:12;5.30;;;3.63;;
16272;SDS011;8244;50.044;9.006;2023-08-31T02:28:15;10.50;;;4.57;;
16272;SDS011;8244;50.044;9.006;2023-08-31T02:33:17;9.35;;;3.95;;
16272;SDS011;8244;50.044;9.006;2023-08-31T02:38:19;6.40;;;3.50;;
16272;SDS011;8244;50.044;9.006;2023-08-31T02:43:22;11.20;;;4.15;;
16272;SDS011;8244;50.044;9.006;2023-08-31T02:48:25;7.38;;;4.07;;
16272;SDS011;8244;50.044;9.006;2023-08-31T02:53:28;8.13;;;4.20;;
16272;SDS011;8244;50.044;9.006;2023-08-31T02:58:31;8.98;;;4.57;;
16272;SDS011;8244;50.044;9.006;2023-08-31T03:03:33;8.98;;;4.65;;
16272;SDS011;8244;50.044;9.006;2023-08-31T03:08:35;6.55;;;4.10;;
16272;SDS011;8244;50.044;9.006;2023-08-31T03:13:39;8.43;;;5.03;;
16272;SDS011;8244;50.044;9.006;2023-08-31T03:18:42;10.07;;;4.63;;
16272;SDS011;8244;50.044;9.006;2023-08-31T03:23:43;10.40;;;5.15;;
16272;SDS011;8244;50.044;9.006;2023-08-31T03:28:46;13.40;;;5.43;;
16272;SDS011;8244;50.044;9.006;2023-08-31T03:33:49;12.55;;;5.70;;
16272;SDS011;8244;50.044;9.006;2023-08-31T03:38:51;10.88;;;6.30;;
16272;SDS011;8244;50.044;9.006;2023-08-31T03:43:54;9.25;;;5.63;;
16272;SDS011;8244;50.044;9.006;2023-08-31T03:48:55;12.52;;;5.68;;
16272;SDS011;8244;50.044;9.006;2023-08-31T03:53:57;9.13;;;5.72;;
16272;SDS011;8244;50.044;9.006;2023-08-31T03:59:01;9.68;;;5.75;;
16272;SDS011;8244;50.044;9.006;2023-08-31T04:04:03;9.38;;;5.72;;
16272;SDS011;8244;50.044;9.006;2023-08-31T04:09:05;10.93;;;5.80;;
16272;SDS011;8244;50.044;9.006;2023-08-31T04:14:09;17.10;;;6.22;;
16272;SDS011;8244;50.044;9.006;2023-08-31T04:19:11;11.40;;;5.80;;
16272;SDS011;8244;50.044;9.006;2023-08-31T04:24:12;9.50;;;5.30;;
16272;SDS011;8244;50.044;9.006;2023-08-31T04:29:15;10.82;;;5.78;;
16272;SDS011;8244;50.044;9.006;2023-08-31T04:34:17;12.85;;;5.82;;
16272;SDS011;8244;50.044;9.006;2023-08-31T04:39:19;9.55;;;6.10;;
16272;SDS011;8244;50.044;9.006;2023-08-31T04:44:22;11.00;;;6.15;;
16272;SDS011;8244;50.044;9.006;2023-08-31T04:49:24;10.98;;;6.47;;
16272;SDS011;8244;50.044;9.006;2023-08-31T04:54:26;11.07;;;6.68;;
16272;SDS011;8244;50.044;9.006;2023-08-31T04:59:29;10.35;;;6.53;;
16272;SDS011;8244;50.044;9.006;2023-08-31T05:04:31;11.25;;;6.80;;
16272;SDS011;8244;50.044;9.006;2023-08-31T05:09:33;14.95;;;6.90;;
16272;SDS011;8244;50.044;9.006;2023-08-31T05:14:36;13.02;;;7.28;;
16272;SDS011;8244;50.044;9.006;2023-08-31T05:19:39;13.10;;;7.30;;
16272;SDS011;8244;50.044;9.006;2023-08-31T05:24:42;12.20;;;6.50;;
16272;SDS011;8244;50.044;9.006;2023-08-31T05:29:45;11.77;;;7.45;;
16272;SDS011;8244;50.044;9.006;2023-08-31T05:34:47;10.50;;;6.57;;
16272;SDS011;8244;50.044;9.006;2023-08-31T05:39:49;11.82;;;6.78;;
16272;SDS011;8244;50.044;9.006;2023-08-31T05:44:53;10.95;;;6.30;;
16272;SDS011;8244;50.044;9.006;2023-08-31T05:49:54;9.13;;;4.38;;
16272;SDS011;8244;50.044;9.006;2023-08-31T05:54:57;7.72;;;4.72;;
16272;SDS011;8244;50.044;9.006;2023-08-31T06:00:00;9.88;;;4.78;;
16272;SDS011;8244;50.044;9.006;2023-08-31T06:05:02;8.43;;;4.68;;
16272;SDS011;8244;50.044;9.006;2023-08-31T06:10:06;8.15;;;4.05;;
16272;SDS011;8244;50.044;9.006;2023-08-31T06:15:09;6.93;;;3.80;;
16272;SDS011;8244;50.044;9.006;2023-08-31T06:20:11;6.80;;;4.05;;
16272;SDS011;8244;50.044;9.006;2023-08-31T06:25:13;8.27;;;4.25;;
16272;SDS011;8244;50.044;9.006;2023-08-31T06:30:19;8.68;;;4.40;;
16272;SDS011;8244;50.044;9.006;2023-08-31T06:35:21;8.07;;;3.88;;
16272;SDS011;8244;50.044;9.006;2023-08-31T06:40:24;9.50;;;3.97;;
16272;SDS011;8244;50.044;9.006;2023-08-31T06:45:27;6.88;;;3.85;;
16272;SDS011;8244;50.044;9.006;2023-08-31T06:50:28;7.53;;;3.72;;
16272;SDS011;8244;50.044;9.006;2023-08-31T06:55:31;6.57;;;3.50;;
16272;SDS011;8244;50.044;9.006;2023-08-31T07:00:35;9.05;;;4.82;;
16272;SDS011;8244;50.044;9.006;2023-08-31T07:05:36;8.15;;;3.28;;
16272;SDS011;8244;50.044;9.006;2023-08-31T07:10:43;5.80;;;3.22;;
16272;SDS011;8244;50.044;9.006;2023-08-31T07:15:46;8.70;;;3.22;;
16272;SDS011;8244;50.044;9.006;2023-08-31T07:20:50;4.72;;;2.75;;
16272;SDS011;8244;50.044;9.006;2023-08-31T07:25:52;7.07;;;2.63;;
16272;SDS011;8244;50.044;9.006;2023-08-31T07:31:02;5.90;;;2.80;;
16272;SDS011;8244;50.044;9.006;2023-08-31T07:36:05;6.82;;;2.50;;
16272;SDS011;8244;50.044;9.006;2023-08-31T07:41:07;7.80;;;2.88;;
16272;SDS011;8244;50.044;9.006;2023-08-31T07:46:10;7.25;;;2.63;;
16272;SDS011;8244;50.044;9.006;2023-08-31T07:51:11;7.75;;;3.40;;
16272;SDS011;8244;50.044;9.006;2023-08-31T07:56:13;6.28;;;2.50;;
16272;SDS011;8244;50.044;9.006;2023-08-31T08:01:16;9.23;;;2.60;;
16272;SDS011;8244;50.044;9.006;2023-08-31T08:06:18;6.63;;;2.65;;
16272;SDS011;8244;50.044;9.006;2023-08-31T08:11:21;8.07;;;2.75;;
16272;SDS011;8244;50.044;9.006;2023-08-31T08:16:25;6.03;;;2.60;;
16272;SDS011;8244;50.044;9.006;2023-08-31T08:21:27;4.97;;;2.40;;
16272;SDS011;8244;50.044;9.006;2023-08-31T08:26:29;6.88;;;2.45;;
16272;SDS011;8244;50.044;9.006;2023-08-31T08:31:32;5.32;;;2.50;;
16272;SDS011;8244;50.044;9.006;2023-08-31T08:36:34;8.25;;;2.67;;
16272;SDS011;8244;50.044;9.006;2023-08-31T08:41:36;4.80;;;2.10;;
16272;SDS011;8244;50.044;9.006;2023-08-31T08:46:40;7.75;;;2.80;;
16272;SDS011;8244;50.044;9.006;2023-08-31T08:51:42;6.03;;;2.25;;
16272;SDS011;8244;50.044;9.006;2023-08-31T08:56:44;8.70;;;2.50;;
16272;SDS011;8244;50.044;9.006;2023-08-31T09:01:47;5.55;;;2.50;;
16272;SDS011;8244;50.044;9.006;2023-08-31T09:06:50;8.00;;;2.53;;
16272;SDS011;8244;50.044;9.006;2023-08-31T09:11:52;7.10;;;2.28;;
16272;SDS011;8244;50.044;9.006;2023-08-31T09:16:57;5.88;;;2.17;;
16272;SDS011;8244;50.044;9.006;2023-08-31T09:21:58;5.28;;;2.22;;
16272;SDS011;8244;50.044;9.006;2023-08-31T09:27:00;6.93;;;2.38;;
16272;SDS011;8244;50.044;9.006;2023-08-31T09:32:03;6.70;;;2.40;;
16272;SDS011;8244;50.044;9.006;2023-08-31T09:37:05;5.95;;;2.47;;
16272;SDS011;8244;50.044;9.006;2023-08-31T09:42:09;6.72;;;2.22;;
16272;SDS011;8244;50.044;9.006;2023-08-31T09:47:12;4.20;;;2.08;;
16272;SDS011;8244;50.044;9.006;2023-08-31T09:52:15;5.93;;;2.13;;
16272;SDS011;8244;50.044;9.006;2023-08-31T09:57:18;5.65;;;2.33;;
16272;SDS011;8244;50.044;9.006;2023-08-31T10:02:24;5.88;;;3.05;;
16272;SDS011;8244;50.044;9.006;2023-08-31T10:07:26;4.38;;;2.08;;
16272;SDS011;8244;50.044;9.006;2023-08-31T10:12:29;7.38;;;2.10;;
16272;SDS011;8244;50.044;9.006;2023-08-31T10:17:33;6.38;;;1.85;;
16272;SDS011;8244;50.044;9.006;2023-08-31T10:22:35;5.40;;;2.50;;
16272;SDS011;8244;50.044;9.006;2023-08-31T10:27:38;6.93;;;2.58;;
16272;SDS011;8244;50.044;9.006;2023-08-31T10:32:41;8.60;;;4.82;;
16272;SDS011;8244;50.044;9.006;2023-08-31T10:37:46;5.68;;;2.20;;
16272;SDS011;8244;50.044;9.006;2023-08-31T10:42:48;4.38;;;1.80;;
16272;SDS011;8244;50.044;9.006;2023-08-31T10:48:18;4.90;;;2.15;;
16272;SDS011;8244;50.044;9.006;2023-08-31T10:53:21;7.22;;;2.38;;
16272;SDS011;8244;50.044;9.006;2023-08-31T10:58:31;4.75;;;2.38;;
16272;SDS011;8244;50.044;9.006;2023-08-31T11:03:39;6.63;;;4.10;;
16272;SDS011;8244;50.044;9.006;2023-08-31T11:08:58;5.97;;;2.40;;
16272;SDS011;8244;50.044;9.006;2023-08-31T11:14:00;7.68;;;4.30;;
16272;SDS011;8244;50.044;9.006;2023-08-31T11:19:03;4.53;;;2.15;;
16272;SDS011;8244;50.044;9.006;2023-08-31T11:24:05;4.93;;;2.13;;
16272;SDS011;8244;50.044;9.006;2023-08-31T11:29:09;5.13;;;1.90;;
16272;SDS011;8244;50.044;9.006;2023-08-31T11:34:13;5.20;;;1.92;;
16272;SDS011;8244;50.044;9.006;2023-08-31T11:39:17;3.40;;;2.20;;
16272;SDS011;8244;50.044;9.006;2023-08-31T11:44:19;5.22;;;2.00;;
16272;SDS011;8244;50.044;9.006;2023-08-31T11:49:22;2.78;;;1.70;;
16272;SDS011;8244;50.044;9.006;2023-08-31T11:54:24;5.88;;;3.30;;
16272;SDS011;8244;50.044;9.006;2023-08-31T11:59:26;4.60;;;1.98;;
16272;SDS011;8244;50.044;9.006;2023-08-31T12:04:29;4.90;;;2.00;;
16272;SDS011;8244;50.044;9.006;2023-08-31T12:09:31;5.45;;;2.80;;
16272;SDS011;8244;50.044;9.006;2023-08-31T12:14:33;7.97;;;3.88;;
16272;SDS011;8244;50.044;9.006;2023-08-31T12:19:40;8.25;;;3.25;;
16272;SDS011;8244;50.044;9.006;2023-08-31T12:24:42;4.15;;;1.83;;
16272;SDS011;8244;50.044;9.006;2023-08-31T12:29:44;3.35;;;1.75;;
16272;SDS011;8244;50.044;9.006;2023-08-31T12:34:48;3.67;;;2.08;;
16272;SDS011;8244;50.044;9.006;2023-08-31T12:39:49;4.07;;;2.80;;
16272;SDS011;8244;50.044;9.006;2023-08-31T12:44:51;3.88;;;2.45;;
16272;SDS011;8244;50.044;9.006;2023-08-31T12:49:54;4.38;;;2.60;;
16272;SDS011;8244;50.044;9.006;2023-08-31T12:54:56;4.82;;;2.00;;
16272;SDS011;8244;50.044;9.006;2023-08-31T12:59:57;5.10;;;2.08;;
16272;SDS011;8244;50.044;9.006;2023-08-31T13:05:01;4.15;;;1.77;;
16272;SDS011;8244;50.044;9.006;2023-08-31T13:10:03;6.13;;;2.28;;
16272;SDS011;8244;50.044;9.006;2023-08-31T13:15:07;3.45;;;1.92;;
16272;SDS011;8244;50.044;9.006;2023-08-31T13:20:11;6.65;;;3.80;;
16272;SDS011;8244;50.044;9.006;2023-08-31T13:25:13;7.05;;;3.60;;
16272;SDS011;8244;50.044;9.006;2023-08-31T13:30:15;5.30;;;3.15;;
16272;SDS011;8244;50.044;9.006;2023-08-31T13:35:18;3.75;;;2.10;;
16272;SDS011;8244;50.044;9.006;2023-08-31T13:40:20;6.68;;;1.90;;
16272;SDS011;8244;50.044;9.006;2023-08-31T13:45:21;5.55;;;1.88;;
16272;SDS011;8244;50.044;9.006;2023-08-31T13:50:24;3.47;;;1.88;;
16272;SDS011;8244;50.044;9.006;2023-08-31T13:55:28;3.53;;;2.22;;
16272;SDS011;8244;50.044;9.006;2023-08-31T14:00:32;3.72;;;1.90;;
16272;SDS011;8244;50.044;9.006;2023-08-31T14:05:36;3.80;;;1.90;;
16272;SDS011;8244;50.044;9.006;2023-08-31T14:10:39;4.80;;;2.08;;
16272;SDS011;8244;50.044;9.006;2023-08-31T14:15:44;3.90;;;2.15;;
16272;SDS011;8244;50.044;9.006;2023-08-31T14:20:47;6.22;;;2.20;;
16272;SDS011;8244;50.044;9.006;2023-08-31T14:25:49;7.05;;;2.55;;
16272;SDS011;8244;50.044;9.006;2023-08-31T14:30:51;8.68;;;2.40;;
16272;SDS011;8244;50.044;9.006;2023-08-31T14:35:54;4.72;;;2.20;;
16272;SDS011;8244;50.044;9.006;2023-08-31T14:40:55;5.45;;;2.30;;
16272;SDS011;8244;50.044;9.006;2023-08-31T14:45:57;3.83;;;2.03;;
16272;SDS011;8244;50.044;9.006;2023-08-31T14:51:02;6.95;;;2.08;;
16272;SDS011;8244;50.044;9.006;2023-08-31T14:56:03;6.63;;;2.00;;
16272;SDS011;8244;50.044;9.006;2023-08-31T15:01:05;10.63;;;2.58;;
16272;SDS011;8244;50.044;9.006;2023-08-31T15:06:08;6.95;;;2.30;;
16272;SDS011;8244;50.044;9.006;2023-08-31T15:11:10;6.95;;;2.22;;
16272;SDS011;8244;50.044;9.006;2023-08-31T15:16:13;6.25;;;2.40;;
16272;SDS011;8244;50.044;9.006;2023-08-31T15:21:16;7.28;;;2.28;;
16272;SDS011;8244;50.044;9.006;2023-08-31T15:26:18;9.68;;;3.00;;
16272;SDS011;8244;50.044;9.006;2023-08-31T15:31:20;6.40;;;2.40;;
16272;SDS011;8244;50.044;9.006;2023-08-31T15:36:23;10.18;;;2.70;;
16272;SDS011;8244;50.044;9.006;2023-08-31T15:41:25;6.65;;;2.65;;
16272;SDS011;8244;50.044;9.006;2023-08-31T15:46:28;8.27;;;2.53;;
16272;SDS011;8244;50.044;9.006;2023-08-31T15:51:32;8.15;;;2.30;;
16272;SDS011;8244;50.044;9.006;2023-08-31T15:56:33;6.55;;;2.10;;
16272;SDS011;8244;50.044;9.006;2023-08-31T16:01:35;8.20;;;2.40;;
16272;SDS011;8244;50.044;9.006;2023-08-31T16:06:38;7.30;;;2.60;;
16272;SDS011;8244;50.044;9.006;2023-08-31T16:11:41;7.20;;;2.50;;
16272;SDS011;8244;50.044;9.006;2023-08-31T16:16:42;8.88;;;2.63;;
16272;SDS011;8244;50.044;9.006;2023-08-31T16:21:45;6.95;;;2.75;;
16272;SDS011;8244;50.044;9.006;2023-08-31T16:26:47;5.68;;;2.38;;
16272;SDS011;8244;50.044;9.006;2023-08-31T16:31:49;7.45;;;3.05;;
16272;SDS011;8244;50.044;9.006;2023-08-31T16:36:53;6.72;;;3.15;;
16272;SDS011;8244;50.044;9.006;2023-08-31T16:41:54;5.90;;;2.80;;
16272;SDS011;8244;50.044;9.006;2023-08-31T16:46:57;5.47;;;2.70;;
16272;SDS011;8244;50.044;9.006;2023-08-31T16:52:01;6.78;;;2.30;;
16272;SDS011;8244;50.044;9.006;2023-08-31T16:57:04;5.80;;;2.20;;
16272;SDS011;8244;50.044;9.006;2023-08-31T17:02:05;7.78;;;2.60;;
16272;SDS011;8244;50.044;9.006;2023-08-31T17:07:09;8.02;;;2.63;;
16272;SDS011;8244;50.044;9.006;2023-08-31T17:12:11;8.82;;;2.88;;
16272;SDS011;8244;50.044;9.006;2023-08-31T17:17:13;7.47;;;2.60;;
16272;SDS011;8244;50.044;9.006;2023-08-31T17:22:16;5.45;;;2.60;;
16272;SDS011;8244;50.044;9.006;2023-08-31T17:27:18;4.85;;;2.22;;
16272;SDS011;8244;50.044;9.006;2023-08-31T17:32:20;7.22;;;2.47;;
16272;SDS011;8244;50.044;9.006;2023-08-31T17:37:23;7.18;;;2.58;;
16272;SDS011;8244;50.044;9.006;2023-08-31T17:42:25;8.15;;;2.65;;
16272;SDS011;8244;50.044;9.006;2023-08-31T17:47:27;9.05;;;2.63;;
16272;SDS011;8244;50.044;9.006;2023-08-31T17:52:30;7.53;;;2.75;;
16272;SDS011;8244;50.044;9.006;2023-08-31T17:57:31;7.95;;;3.05;;
16272;SDS011;8244;50.044;9.006;2023-08-31T18:02:33;7.70;;;3.22;;
16272;SDS011;8244;50.044;9.006;2023-08-31T18:07:36;7.10;;;2.63;;
16272;SDS011;8244;50.044;9.006;2023-08-31T18:12:38;7.65;;;2.45;;
16272;SDS011;8244;50.044;9.006;2023-08-31T18:17:41;6.38;;;2.47;;
16272;SDS011;8244;50.044;9.006;2023-08-31T18:22:44;5.68;;;2.60;;
16272;SDS011;8244;50.044;9.006;2023-08-31T18:27:46;9.27;;;3.13;;
16272;SDS011;8244;50.044;9.006;2023-08-31T18:32:50;6.37;;;2.60;;
16272;SDS011;8244;50.044;9.006;2023-08-31T18:37:53;6.72;;;2.33;;
16272;SDS011;8244;50.044;9.006;2023-08-31T18:42:55;10.80;;;3.10;;
16272;SDS011;8244;50.044;9.006;2023-08-31T18:47:56;10.13;;;3.10;;
16272;SDS011;8244;50.044;9.006;2023-08-31T18:52:59;6.82;;;2.80;;
16272;SDS011;8244;50.044;9.006;2023-08-31T18:58:01;9.73;;;3.72;;
16272;SDS011;8244;50.044;9.006;2023-08-31T19:03:04;11.25;;;3.97;;
16272;SDS011;8244;50.044;9.006;2023-08-31T19:08:07;6.82;;;2.63;;
16272;SDS011;8244;50.044;9.006;2023-08-31T19:13:08;7.28;;;2.50;;
16272;SDS011;8244;50.044;9.006;2023-08-31T19:18:10;9.70;;;2.70;;
16272;SDS011;8244;50.044;9.006;2023-08-31T19:23:13;8.98;;;3.10;;
16272;SDS011;8244;50.044;9.006;2023-08-31T19:28:16;8.32;;;3.05;;
16272;SDS011;8244;50.044;9.006;2023-08-31T19:33:18;7.40;;;2.80;;
16272;SDS011;8244;50.044;9.006;2023-08-31T19:38:21;7.53;;;2.80;;
16272;SDS011;8244;50.044;9.006;2023-08-31T19:43:23;8.60;;;2.63;;
16272;SDS011;8244;50.044;9.006;2023-08-31T19:48:25;9.05;;;3.00;;
16272;SDS011;8244;50.044;9.006;2023-08-31T19:53:28;8.32;;;2.45;;
16272;SDS011;8244;50.044;9.006;2023-08-31T19:58:29;7.13;;;2.70;;
16272;SDS011;8244;50.044;9.006;2023-08-31T20:03:32;8.35;;;3.22;;
16272;SDS011;8244;50.044;9.006;2023-08-31T20:08:39;10.60;;;3.17;;
16272;SDS011;8244;50.044;9.006;2023-08-31T20:13:41;8.93;;;2.80;;
16272;SDS011;8244;50.044;9.006;2023-08-31T20:18:43;9.80;;;3.03;;
16272;SDS011;8244;50.044;9.006;2023-08-31T20:23:46;8.63;;;3.03;;
16272;SDS011;8244;50.044;9.006;2023-08-31T20:28:47;8.40;;;3.25;;
16272;SDS011;8244;50.044;9.006;2023-08-31T20:33:49;7.90;;;2.95;;
16272;SDS011;8244;50.044;9.006;2023-08-31T20:38:52;7.05;;;2.72;;
16272;SDS011;8244;50.044;9.006;2023-08-31T20:43:54;9.07;;;2.83;;
16272;SDS011;8244;50.044;9.006;2023-08-31T20:48:56;11.25;;;3.17;;
16272;SDS011;8244;50.044;9.006;2023-08-31T20:54:00;11.65;;;2.80;;
16272;SDS011;8244;50.044;9.006;2023-08-31T20:59:03;9.13;;;3.10;;
16272;SDS011;8244;50.044;9.006;2023-08-31T21:04:05;9.90;;;2.90;;
16272;SDS011;8244;50.044;9.006;2023-08-31T21:09:08;7.65;;;3.00;;
16272;SDS011;8244;50.044;9.006;2023-08-31T21:14:10;9.23;;;2.92;;
16272;SDS011;8244;50.044;9.006;2023-08-31T21:19:12;9.15;;;2.97;;
16272;SDS011;8244;50.044;9.006;2023-08-31T21:24:15;8.98;;;2.95;;
16272;SDS011;8244;50.044;9.006;2023-08-31T21:29:16;9.05;;;2.92;;
16272;SDS011;8244;50.044;9.006;2023-08-31T21:34:18;8.25;;;3.10;;
16272;SDS011;8244;50.044;9.006;2023-08-31T21:39:22;10.45;;;3.20;;
16272;SDS011;8244;50.044;9.006;2023-08-31T21:44:24;10.50;;;3.10;;
16272;SDS011;8244;50.044;9.006;2023-08-31T21:49:25;8.60;;;2.80;;
16272;SDS011;8244;50.044;9.006;2023-08-31T21:54:28;9.18;;;3.08;;
16272;SDS011;8244;50.044;9.006;2023-08-31T21:59:30;8.32;;;3.05;;
16272;SDS011;8244;50.044;9.006;2023-08-31T22:04:35;6.85;;;3.08;;
16272;SDS011;8244;50.044;9.006;2023-08-31T22:09:38;8.40;;;3.15;;
16272;SDS011;8244;50.044;9.006;2023-08-31T22:14:43;10.65;;;3.30;;
16272;SDS011;8244;50.044;9.006;2023-08-31T22:19:44;10.15;;;3.20;;
16272;SDS011;8244;50.044;9.006;2023-08-31T22:24:48;11.05;;;3.47;;
16272;SDS011;8244;50.044;9.006;2023-08-31T22:29:50;7.50;;;3.55;;
16272;SDS011;8244;50.044;9.006;2023-08-31T22:34:52;10.35;;;3.35;;
16272;SDS011;8244;50.044;9.006;2023-08-31T22:39:55;9.63;;;3.30;;
16272;SDS011;8244;50.044;9.006;2023-08-31T22:44:57;10.60;;;3.80;;
16272;SDS011;8244;50.044;9.006;2023-08-31T22:49:58;9.55;;;3.20;;
16272;SDS011;8244;50.044;9.006;2023-08-31T22:55:03;10.38;;;3.60;;
16272;SDS011;8244;50.044;9.006;2023-08-31T23:00:05;12.45;;;4.05;;
16272;SDS011;8244;50.044;9.006;2023-08-31T23:05:09;7.60;;;3.20;;
16272;SDS011;8244;50.044;9.006;2023-08-31T23:10:12;10.98;;;3.30;;
16272;SDS011;8244;50.044;9.006;2023-08-31T23:15:14;6.97;;;3.15;;
16272;SDS011;8244;50.044;9.006;2023-08-31T23:20:17;12.27;;;3.83;;
16272;SDS011;8244;50.044;9.006;2023-08-31T23:25:20;8.32;;;3.85;;
16272;SDS011;8244;50.044;9.006;2023-08-31T23:30:22;9.60;;;3.45;;
16272;SDS011;8244;50.044;9.006;2023-08-31T23:35:24;8.63;;;3.10;;
16272;SDS011;8244;50.044;9.006;2023-08-31T23:40:27;8.27;;;3.35;;
16272;SDS011;8244;50.044;9.006;2023-08-31T23:45:28;9.32;;;3.30;;
16272;SDS011;8244;50.044;9.006;2023-08-31T23:50:30;7.32;;;3.40;;
16272;SDS011;8244;50.044;9.006;2023-08-31T23:55:37;8.48;;;3.70;;
